createdAt,value
2018-05-26T00:01:28.230Z,96770.41
2018-05-26T00:04:51.502Z,96774.05
2018-05-26T00:08:15.232Z,96777.52
2018-05-26T00:11:38.572Z,96784.87
2018-05-26T00:15:04.175Z,96787.03
2018-05-26T00:18:27.604Z,96779.59
2018-05-26T00:21:51.047Z,96789.98
2018-05-26T00:25:14.503Z,96784.55
2018-05-26T00:28:37.942Z,96783.05
2018-05-26T00:32:01.406Z,96782.45
2018-05-26T00:35:25.480Z,96778.97
2018-05-26T00:38:50.480Z,96777.75
2018-05-26T00:42:13.812Z,96777.67
2018-05-26T00:45:37.201Z,96772.98
2018-05-26T00:49:00.620Z,96780.23
2018-05-26T00:52:24.090Z,96779.19
2018-05-26T00:55:47.513Z,96779.57
2018-05-26T00:59:10.901Z,96782.49
2018-05-26T01:02:34.384Z,96785.84
2018-05-26T01:05:59.979Z,96782.16
2018-05-26T01:09:23.414Z,96778.08
2018-05-26T01:12:46.814Z,96774.14
2018-05-26T01:16:10.264Z,96772.65
2018-05-26T01:19:33.659Z,96770.99
2018-05-26T01:22:57.680Z,96775.69
2018-05-26T01:26:21.446Z,96779.48
2018-05-26T01:29:46.935Z,96782.38
2018-05-26T01:33:10.567Z,96787.99
2018-05-26T01:36:34.165Z,96785.06
2018-05-26T01:39:57.510Z,96789.09
2018-05-26T01:43:20.919Z,96795.11
2018-05-26T01:46:44.341Z,96797.61
2018-05-26T01:50:07.802Z,96795.11
2018-05-26T01:53:31.276Z,96793.62
2018-05-26T01:56:54.680Z,96800.41
2018-05-26T02:00:18.090Z,96799.06
2018-05-26T02:03:41.689Z,96795.22
2018-05-26T02:07:07.054Z,96788.42
2018-05-26T02:10:30.467Z,96798.33
2018-05-26T02:13:53.895Z,96788.55
2018-05-26T02:17:17.301Z,96790.05
2018-05-26T02:20:42.843Z,96787.66
2018-05-26T02:24:06.337Z,96789.50
2018-05-26T02:27:29.723Z,96791.63
2018-05-26T02:30:53.119Z,96789.44
2018-05-26T02:34:16.553Z,96791.48
2018-05-26T02:37:40.147Z,96787.99
2018-05-26T02:41:03.412Z,96791.78
2018-05-26T02:44:26.683Z,96800.52
2018-05-26T02:47:52.570Z,96803.84
2018-05-26T02:51:16.643Z,96801.52
2018-05-26T02:54:41.379Z,96796.02
2018-05-26T02:58:04.842Z,96794.48
2018-05-26T03:01:28.306Z,96800.89
2018-05-26T03:04:57.203Z,96798.63
2018-05-26T03:08:26.957Z,96800.89
2018-05-26T03:11:56.802Z,96804.75
2018-05-26T03:15:20.174Z,96807.81
2018-05-26T03:18:44.414Z,96802.98
2018-05-26T03:22:07.693Z,96805.64
2018-05-26T03:25:33.212Z,96806.88
2018-05-26T03:28:56.665Z,96807.09
2018-05-26T03:32:21.549Z,96803.02
2018-05-26T03:35:45.655Z,96814.25
2018-05-26T03:39:10.528Z,96815.54
2018-05-26T03:42:34.817Z,96823.09
2018-05-26T03:46:00.184Z,96823.75
2018-05-26T03:49:23.748Z,96820.23
2018-05-26T03:52:47.065Z,96818.81
2018-05-26T03:56:30.251Z,96822.34
2018-05-26T04:00:11.562Z,96826.33
2018-05-26T04:03:35.109Z,96826.55
2018-05-26T04:06:58.496Z,96828.09
2018-05-26T04:10:21.942Z,96835.36
2018-05-26T04:13:45.558Z,96835.00
2018-05-26T04:17:08.843Z,96836.13
2018-05-26T04:20:32.291Z,96842.40
2018-05-26T04:23:57.775Z,96842.06
2018-05-26T04:27:21.217Z,96842.09
2018-05-26T04:30:46.730Z,96842.55
2018-05-26T04:34:10.303Z,96846.37
2018-05-26T04:37:35.788Z,96848.80
2018-05-26T04:40:59.192Z,96852.32
2018-05-26T04:44:22.635Z,96859.33
2018-05-26T04:47:46.088Z,96860.45
2018-05-26T04:51:09.527Z,96861.83
2018-05-26T04:54:32.986Z,96861.60
2018-05-26T04:57:56.583Z,96868.79
2018-05-26T05:01:20.049Z,96865.67
2018-05-26T05:04:43.373Z,96874.36
2018-05-26T05:08:06.763Z,96873.61
2018-05-26T05:11:30.193Z,96887.67
2018-05-26T05:14:55.730Z,96887.44
2018-05-26T05:18:19.149Z,96884.98
2018-05-26T05:21:42.770Z,96884.91
2018-05-26T05:25:06.092Z,96884.09
2018-05-26T05:28:31.605Z,96878.50
2018-05-26T05:31:54.992Z,96877.20
2018-05-26T05:35:18.473Z,96880.30
2018-05-26T05:38:41.946Z,96877.58
2018-05-26T05:42:05.383Z,96888.59
2018-05-26T05:45:28.958Z,96879.17
2018-05-26T05:48:52.456Z,96885.06
2018-05-26T05:52:15.747Z,96880.97
2018-05-26T05:55:39.302Z,96889.45
2018-05-26T05:59:02.573Z,96890.25
2018-05-26T06:02:26.001Z,96896.23
2018-05-26T06:05:49.421Z,96894.95
2018-05-26T06:09:12.861Z,96906.14
2018-05-26T06:12:36.588Z,96903.33
2018-05-26T06:16:01.911Z,96899.91
2018-05-26T06:19:25.323Z,96900.83
2018-05-26T06:22:48.802Z,96906.20
2018-05-26T06:26:12.220Z,96909.45
2018-05-26T06:29:36.323Z,96911.08
2018-05-26T06:33:02.491Z,96917.80
2018-05-26T06:36:27.348Z,96917.44
2018-05-26T06:39:51.507Z,96921.45
2018-05-26T06:43:14.966Z,96916.86
2018-05-26T06:46:39.671Z,96918.83
2018-05-26T06:50:03.098Z,96914.76
2018-05-26T06:53:26.596Z,96911.30
2018-05-26T06:56:50.046Z,96909.64
2018-05-26T07:00:13.462Z,96904.58
2018-05-26T07:03:36.889Z,96890.48
2018-05-26T07:07:00.311Z,96892.14
2018-05-26T07:10:23.777Z,96894.19
2018-05-26T07:13:47.237Z,96902.12
2018-05-26T07:17:10.729Z,96901.53
2018-05-26T07:20:34.149Z,96904.48
2018-05-26T07:23:57.586Z,96900.80
2018-05-26T07:27:21.029Z,96906.34
2018-05-26T07:30:44.451Z,96910.39
2018-05-26T07:34:08.039Z,96901.54
2018-05-26T07:37:33.368Z,96906.38
2018-05-26T07:40:58.969Z,96903.14
2018-05-26T07:44:22.367Z,96904.94
2018-05-26T07:47:45.803Z,96902.88
2018-05-26T07:51:09.284Z,96900.47
2018-05-26T07:54:32.750Z,96900.91
2018-05-26T07:57:56.325Z,96903.09
2018-05-26T08:01:19.623Z,96906.63
2018-05-26T08:04:42.997Z,96907.88
2018-05-26T08:08:07.175Z,96908.48
2018-05-26T08:11:31.994Z,96906.70
2018-05-26T08:14:55.381Z,96904.09
2018-05-26T08:18:19.895Z,96908.61
2018-05-26T08:21:43.308Z,96902.06
2018-05-26T08:25:08.857Z,96907.34
2018-05-26T08:28:32.361Z,96910.45
2018-05-26T08:31:55.810Z,96910.98
2018-05-26T08:35:19.436Z,96912.20
2018-05-26T08:38:43.176Z,96914.27
2018-05-26T08:42:08.227Z,96913.69
2018-05-26T08:45:33.477Z,96915.00
2018-05-26T08:48:58.999Z,96914.92
2018-05-26T08:52:22.433Z,96921.42
2018-05-26T08:55:45.862Z,96926.91
2018-05-26T08:59:09.327Z,96929.06
2018-05-26T09:02:32.770Z,96927.58
2018-05-26T09:05:56.182Z,96928.86
2018-05-26T09:09:19.753Z,96929.46
2018-05-26T09:12:43.024Z,96931.64
2018-05-26T09:16:06.506Z,96925.77
2018-05-26T09:19:29.932Z,96924.20
2018-05-26T09:22:53.312Z,96932.07
2018-05-26T09:26:16.781Z,96937.95
2018-05-26T09:29:40.266Z,96925.91
2018-05-26T09:33:03.655Z,96929.48
2018-05-26T09:36:29.165Z,96934.62
2018-05-26T09:39:52.573Z,96937.62
2018-05-26T09:43:16.003Z,96944.28
2018-05-26T09:46:39.468Z,96937.36
2018-05-26T09:50:02.870Z,96937.96
2018-05-26T09:53:26.317Z,96941.51
2018-05-26T09:56:49.845Z,96933.82
2018-05-26T10:00:13.199Z,96939.11
2018-05-26T10:03:36.557Z,96933.62
2018-05-26T10:07:02.257Z,96933.31
2018-05-26T10:10:25.634Z,96933.03
2018-05-26T10:13:48.942Z,96932.84
2018-05-26T10:17:14.485Z,96933.17
2018-05-26T10:20:37.955Z,96929.94
2018-05-26T10:24:01.375Z,96928.98
2018-05-26T10:27:24.818Z,96925.11
2018-05-26T10:30:50.355Z,96929.74
2018-05-26T10:34:15.815Z,96931.64
2018-05-26T10:37:39.408Z,96932.36
2018-05-26T10:41:02.732Z,96922.17
2018-05-26T10:44:26.271Z,96936.02
2018-05-26T10:47:49.613Z,96936.39
2018-05-26T10:51:16.649Z,96935.61
2018-05-26T10:54:41.018Z,96938.52
2018-05-26T10:58:06.386Z,96937.02
2018-05-26T11:01:30.270Z,96933.62
2018-05-26T11:04:57.339Z,96933.76
2018-05-26T11:08:21.386Z,96942.69
2018-05-26T11:11:44.840Z,96936.42
2018-05-26T11:15:08.322Z,96939.34
2018-05-26T11:18:31.717Z,96943.14
2018-05-26T11:21:55.140Z,96945.12
2018-05-26T11:25:18.620Z,96944.94
2018-05-26T11:28:42.004Z,96941.39
2018-05-26T11:32:05.426Z,96952.55
2018-05-26T11:35:29.285Z,96950.70
2018-05-26T11:38:54.376Z,96943.83
2018-05-26T11:42:17.864Z,96946.87
2018-05-26T11:45:41.326Z,96942.94
2018-05-26T11:49:04.823Z,96950.89
2018-05-26T11:52:28.172Z,96948.95
2018-05-26T11:55:51.636Z,96949.43
2018-05-26T11:59:15.172Z,96947.70
2018-05-26T12:02:38.524Z,96948.08
2018-05-26T12:06:04.088Z,96952.03
2018-05-26T12:09:27.550Z,96948.91
2018-05-26T12:12:51.245Z,96958.01
2018-05-26T12:16:14.720Z,96959.95
2018-05-26T12:19:38.220Z,96950.78
2018-05-26T12:23:01.744Z,96955.61
2018-05-26T12:26:25.284Z,96957.30
2018-05-26T12:29:49.166Z,96954.00
2018-05-26T12:33:14.243Z,96942.92
2018-05-26T12:36:37.804Z,96935.99
2018-05-26T12:40:01.451Z,96940.06
2018-05-26T12:43:26.685Z,96937.20
2018-05-26T12:46:50.379Z,96934.58
2018-05-26T12:50:14.508Z,96935.05
2018-05-26T12:53:39.563Z,96933.39
2018-05-26T12:57:03.005Z,96932.69
2018-05-26T13:00:27.762Z,96933.87
2018-05-26T13:03:52.131Z,96928.70
2018-05-26T13:07:15.697Z,96932.78
2018-05-26T13:10:40.997Z,96931.02
2018-05-26T13:14:05.255Z,96930.65
2018-05-26T13:17:29.102Z,96926.68
2018-05-26T13:20:52.409Z,96920.91
2018-05-26T13:24:15.954Z,96928.48
2018-05-26T13:27:39.340Z,96931.13
2018-05-26T13:31:02.777Z,96922.61
2018-05-26T13:34:26.273Z,96921.87
2018-05-26T13:37:49.775Z,96919.98
2018-05-26T13:41:13.338Z,96921.48
2018-05-26T13:44:39.053Z,96921.16
2018-05-26T13:48:02.501Z,96922.98
2018-05-26T13:51:26.086Z,96912.48
2018-05-26T13:54:51.638Z,96913.06
2018-05-26T13:58:15.072Z,96916.52
2018-05-26T14:01:38.500Z,96914.20
2018-05-26T14:05:01.998Z,96903.34
2018-05-26T14:08:25.475Z,96902.33
2018-05-26T14:11:48.959Z,96902.21
2018-05-26T14:15:12.373Z,96901.05
2018-05-26T14:18:37.901Z,96891.30
2018-05-26T14:22:01.339Z,96895.60
2018-05-26T14:25:24.795Z,96898.86
2018-05-26T14:28:48.257Z,96896.28
2018-05-26T14:32:11.653Z,96894.86
2018-05-26T14:35:37.198Z,96897.45
2018-05-26T14:39:03.167Z,96894.77
2018-05-26T14:42:28.276Z,96889.16
2018-05-26T14:45:51.723Z,96886.71
2018-05-26T14:49:16.629Z,96893.08
2018-05-26T14:52:40.670Z,96888.17
2018-05-26T14:56:06.197Z,96886.64
2018-05-26T14:59:33.217Z,96879.08
2018-05-26T15:02:57.314Z,96881.28
2018-05-26T15:06:22.791Z,96880.34
2018-05-26T15:09:48.312Z,96887.34
2018-05-26T15:13:14.091Z,96884.97
2018-05-26T15:16:39.353Z,96888.80
2018-05-26T15:20:02.869Z,96886.50
2018-05-26T15:23:28.342Z,96880.61
2018-05-26T15:26:54.023Z,96881.61
2018-05-26T15:30:17.521Z,96886.77
2018-05-26T15:33:42.807Z,96888.06
2018-05-26T15:37:06.436Z,96889.91
2018-05-26T15:40:29.703Z,96890.02
2018-05-26T15:43:55.293Z,96877.73
2018-05-26T15:47:18.757Z,96882.36
2018-05-26T15:50:42.207Z,96883.03
2018-05-26T15:54:05.708Z,96872.45
2018-05-26T15:57:29.093Z,96870.70
2018-05-26T16:00:52.563Z,96869.75
2018-05-26T16:04:15.987Z,96864.45
2018-05-26T16:07:39.470Z,96859.02
2018-05-26T16:11:02.869Z,96859.28
2018-05-26T16:14:26.334Z,96847.62
2018-05-26T16:17:49.802Z,96853.25
2018-05-26T16:21:15.305Z,96845.27
2018-05-26T16:24:38.747Z,96848.70
2018-05-26T16:28:02.262Z,96850.88
2018-05-26T16:31:25.605Z,96852.94
2018-05-26T16:34:49.033Z,96858.92
2018-05-26T16:38:14.735Z,96855.45
2018-05-26T16:41:40.142Z,96855.25
2018-05-26T16:45:03.688Z,96859.89
2018-05-26T16:48:29.067Z,96864.08
2018-05-26T16:51:54.747Z,96869.08
2018-05-26T16:55:18.137Z,96874.51
2018-05-26T16:58:41.709Z,96871.05
2018-05-26T17:02:04.995Z,96870.30
2018-05-26T17:05:28.435Z,96863.02
2018-05-26T17:08:51.877Z,96858.47
2018-05-26T17:12:15.273Z,96865.85
2018-05-26T17:15:38.733Z,96874.95
2018-05-26T17:19:02.223Z,96875.80
2018-05-26T17:22:27.866Z,96873.95
2018-05-26T17:25:51.165Z,96880.70
2018-05-26T17:29:14.631Z,96885.09
2018-05-26T17:32:38.114Z,96890.14
2018-05-26T17:36:01.503Z,96890.33
2018-05-26T17:39:27.040Z,96886.75
2018-05-26T17:42:50.861Z,96873.80
2018-05-26T17:46:15.985Z,96879.12
2018-05-26T17:49:39.425Z,96869.63
2018-05-26T17:53:02.872Z,96878.38
2018-05-26T17:56:26.777Z,96877.16
2018-05-26T17:59:52.430Z,96878.22
2018-05-26T18:03:15.763Z,96866.00
2018-05-26T18:06:39.351Z,96866.58
2018-05-26T18:10:02.857Z,96867.42
2018-05-26T18:14:00.685Z,96865.25
2018-05-26T18:17:25.329Z,96869.02
2018-05-26T18:20:48.977Z,96882.70
2018-05-26T18:24:14.310Z,96904.56
2018-05-26T18:27:37.740Z,96915.97
2018-05-26T18:31:01.436Z,96914.80
2018-05-26T18:34:27.047Z,96900.97
2018-05-26T18:37:52.307Z,96920.44
2018-05-26T18:41:15.852Z,96925.94
2018-05-26T18:44:39.545Z,96920.39
2018-05-26T18:48:04.848Z,96917.98
2018-05-26T18:51:28.584Z,96927.98
2018-05-26T18:54:53.773Z,96930.54
2018-05-26T18:58:17.277Z,96931.13
2018-05-26T19:01:40.997Z,96936.03
2018-05-26T19:05:06.309Z,96935.33
2018-05-26T19:08:29.818Z,96945.59
2018-05-26T19:11:53.209Z,96938.66
2018-05-26T19:15:16.687Z,96948.74
2018-05-26T19:18:42.302Z,96947.20
2018-05-26T19:22:05.815Z,96952.68
2018-05-26T19:25:31.365Z,96964.73
2018-05-26T19:28:56.297Z,96967.35
2018-05-26T19:32:20.521Z,96982.08
2018-05-26T19:35:44.155Z,96983.58
2018-05-26T19:39:07.849Z,96995.48
2018-05-26T19:42:31.437Z,97010.92
2018-05-26T19:45:56.752Z,97020.98
2018-05-26T19:49:20.347Z,97020.40
2018-05-26T19:52:43.803Z,97015.70
2018-05-26T19:56:07.191Z,97003.06
2018-05-26T19:59:32.926Z,97004.49
2018-05-26T20:02:56.515Z,97003.36
2018-05-26T20:06:19.927Z,97007.09
2018-05-26T20:09:45.821Z,97018.98
2018-05-26T20:13:09.933Z,97019.02
2018-05-26T20:16:33.596Z,97024.44
2018-05-26T20:19:57.672Z,97027.77
2018-05-26T20:24:15.763Z,97032.53
2018-05-26T20:27:41.331Z,97043.95
2018-05-26T20:31:06.773Z,97046.86
2018-05-26T20:34:32.653Z,97052.44
2018-05-26T20:37:58.951Z,97063.24
2018-05-26T20:41:23.919Z,97062.12
2018-05-26T20:44:49.344Z,97066.50
2018-05-26T20:48:14.931Z,97070.66
2018-05-26T20:51:40.588Z,97071.22
2018-05-26T20:55:06.109Z,97065.94
2018-05-26T20:58:31.694Z,97067.23
2018-05-26T21:01:56.309Z,97068.19
2018-05-26T21:05:21.486Z,97073.27
2018-05-26T21:08:47.224Z,97062.69
2018-05-26T21:12:12.757Z,97056.40
2018-05-26T21:15:38.353Z,97064.11
2018-05-26T21:19:03.898Z,97062.59
2018-05-26T21:22:27.427Z,97060.31
2018-05-26T21:25:52.842Z,97055.30
2018-05-26T21:29:17.671Z,97055.17
2018-05-26T21:32:42.291Z,97054.83
2018-05-26T21:36:06.259Z,97055.80
2018-05-26T21:39:32.080Z,97065.63
2018-05-26T21:42:55.617Z,97062.83
2018-05-26T21:46:19.321Z,97067.30
2018-05-26T21:49:44.957Z,97073.86
2018-05-26T21:53:08.497Z,97067.58
2018-05-26T22:04:31.573Z,97054.45
2018-05-26T22:07:55.713Z,97044.51
2018-05-26T22:11:19.133Z,97044.66
2018-05-26T22:14:45.191Z,97045.70
2018-05-26T22:18:10.148Z,97034.52
2018-05-26T22:21:34.124Z,97027.98
2018-05-26T22:24:59.201Z,97027.21
2018-05-26T22:28:22.731Z,97017.69
2018-05-26T22:31:46.091Z,97014.80
2018-05-26T22:35:09.548Z,97006.25
2018-05-26T22:38:33.003Z,97008.85
2018-05-26T22:41:56.541Z,96999.63
2018-05-26T22:45:19.977Z,96996.20
2018-05-26T22:48:43.590Z,96990.51
2018-05-26T22:52:06.967Z,96985.86
2018-05-26T22:55:32.499Z,96984.19
2018-05-26T22:58:57.609Z,96985.66
2018-05-26T23:02:21.645Z,96996.73
2018-05-26T23:05:47.218Z,97002.89
2018-05-26T23:09:10.811Z,96996.67
2018-05-26T23:12:34.303Z,96997.99
2018-05-26T23:15:59.876Z,96997.22
2018-05-26T23:19:23.322Z,96999.58
2018-05-26T23:22:48.873Z,97002.84
2018-05-26T23:26:12.328Z,97004.19
2018-05-26T23:29:35.886Z,96989.55
2018-05-26T23:32:59.396Z,96984.81
2018-05-26T23:36:22.777Z,96982.48
2018-05-26T23:39:46.705Z,96971.52
2018-05-26T23:43:11.722Z,96966.36
2018-05-26T23:46:35.246Z,96958.17
2018-05-26T23:49:58.642Z,96966.16
2018-05-26T23:53:22.158Z,96967.75
2018-05-26T23:56:45.460Z,96966.55
